Time;durP1;ratioP1;P1;durP2;ratioP2;P2;SDS_P1;SDS_P2;PMS_P1;PMS_P2;Temp;Humidity;BMP_temperature;BMP_pressure;BME280_temperature;BME280_humidity;BME280_pressure;Samples;Min_cycle;Max_cycle;Signal;HPM_P1;HPM_P2
2023/09/23 00:11:40;;;;;;;4.00;1.60;;;;;;;14.00;78.26;99468.28;31221452;28;96702;-77
2023/09/23 00:26:42;;;;;;;3.25;1.80;;;;;;;13.98;78.43;99470.31;31220128;28;96809;-71
2023/09/23 00:41:42;;;;;;;3.33;1.30;;;;;;;14.04;78.56;99469.50;31217754;28;97284;-74
2023/09/23 00:56:43;;;;;;;4.93;1.65;;;;;;;13.91;78.14;99517.72;31217213;28;96655;-75
2023/09/23 01:11:45;;;;;;;3.65;1.70;;;;;;;13.80;78.95;99490.53;31214699;28;96732;-77
2023/09/23 01:26:51;;;;;;;3.23;2.03;;;;;;;13.94;79.23;99463.75;31214868;27;96801;-68
2023/09/23 01:41:53;;;;;;;4.10;2.17;;;;;;;14.00;79.28;99481.66;31213182;28;97402;-77
2023/09/23 01:56:54;;;;;;;4.60;2.37;;;;;;;13.85;78.88;99497.97;31211653;28;97216;-73
2023/09/23 02:11:55;;;;;;;4.80;2.33;;;;;;;13.67;79.16;99499.41;31210262;28;97208;-71
2023/09/23 02:26:55;;;;;;;5.40;2.88;;;;;;;13.45;79.56;99501.50;31209297;28;96796;-71
2023/09/23 02:41:56;;;;;;;4.50;2.70;;;;;;;13.24;79.92;99512.34;31228619;28;98472;-74
2023/09/23 02:56:56;;;;;;;8.60;3.10;;;;;;;13.25;80.29;99481.91;31227891;28;97624;-76
2023/09/23 03:11:56;;;;;;;5.35;3.00;;;;;;;13.38;80.54;99508.66;31226770;28;97327;-75
2023/09/23 03:26:59;;;;;;;7.00;2.88;;;;;;;13.28;80.34;99562.53;31225207;28;97439;-77
2023/09/23 03:41:59;;;;;;;5.90;2.90;;;;;;;13.29;80.63;99590.13;31220959;27;97161;-77
2023/09/23 03:56:59;;;;;;;6.13;2.92;;;;;;;13.23;80.77;99586.44;31202014;28;110017;-72
2023/09/23 04:12:00;;;;;;;5.43;2.47;;;;;;;13.18;80.60;99627.13;31219138;28;105987;-67
2023/09/23 04:27:00;;;;;;;5.40;2.85;;;;;;;12.83;80.74;99613.84;31219366;28;97363;-69
2023/09/23 04:42:01;;;;;;;6.85;2.80;;;;;;;12.66;81.42;99626.72;31217616;28;97609;-77
2023/09/23 04:57:03;;;;;;;5.95;3.60;;;;;;;12.75;81.79;99654.09;31214357;28;96635;-76
2023/09/23 05:12:04;;;;;;;6.83;3.60;;;;;;;12.93;81.57;99693.69;31213912;28;96679;-75
2023/09/23 05:27:05;;;;;;;6.30;3.30;;;;;;;13.35;82.12;99653.50;31213036;28;97219;-71
2023/09/23 05:42:05;;;;;;;7.38;3.70;;;;;;;14.12;82.03;99659.44;31209454;28;96888;-70
2023/09/23 05:57:07;;;;;;;9.23;2.33;;;;;;;15.05;81.14;99689.81;31209623;28;97115;-71
2023/09/23 06:12:07;;;;;;;15.50;9.17;;;;;;;15.49;80.02;99708.81;31206108;28;97122;-75
2023/09/23 06:27:08;;;;;;;77.85;47.47;;;;;;;16.10;79.43;99761.13;31204460;28;97670;-71
2023/09/23 06:42:08;;;;;;;7.68;2.35;;;;;;;16.78;79.19;99739.91;31204451;28;107186;-72
2023/09/23 06:57:08;;;;;;;8.80;5.22;;;;;;;18.73;77.23;99785.63;31203930;28;111149;-72
2023/09/23 07:12:12;;;;;;;9.18;1.98;;;;;;;20.35;73.25;99799.47;31204351;28;97080;-77
2023/09/23 07:27:12;;;;;;;3.17;1.27;;;;;;;20.73;69.87;99831.22;31222941;27;97186;-77
2023/09/23 07:42:13;;;;;;;7.80;1.60;;;;;;;21.34;67.23;99851.34;31222090;28;97104;-73
2023/09/23 07:57:13;;;;;;;6.67;2.53;;;;;;;21.73;64.61;99870.31;31220219;28;97183;-64
2023/09/23 08:12:14;;;;;;;4.22;1.42;;;;;;;21.66;60.57;99900.31;31218376;28;97263;-72
2023/09/23 08:27:14;;;;;;;2.53;1.27;;;;;;;21.91;58.95;99910.69;31215713;27;97436;-75
2023/09/23 08:42:17;;;;;;;4.13;1.40;;;;;;;21.50;57.14;99918.25;31214596;28;114639;-72
2023/09/23 08:57:17;;;;;;;2.53;1.00;;;;;;;22.01;53.96;99947.97;31215266;28;96795;-68
2023/09/23 09:12:18;;;;;;;2.40;1.30;;;;;;;22.57;51.58;99961.38;31213250;28;97353;-69
2023/09/23 09:27:18;;;;;;;;;;;;;;;21.84;51.35;99941.78;31211582;28;97448;-72
2023/09/23 09:42:33;;;;;;;4.40;1.20;;;;;;;22.18;50.11;99968.78;31210199;28;97120;-66
2023/09/23 09:57:33;;;;;;;4.80;1.27;;;;;;;23.27;47.11;99966.91;31208675;28;97199;-71
2023/09/23 10:12:35;;;;;;;2.53;1.20;;;;;;;25.00;43.80;99964.41;31208344;28;97164;-68
2023/09/23 10:27:38;;;;;;;3.23;1.20;;;;;;;25.58;41.65;99963.28;31206767;28;107125;-67
2023/09/23 10:42:44;;;;;;;4.80;1.30;;;;;;;28.20;38.95;99957.09;31206345;28;96782;-70
2023/09/23 10:57:45;;;;;;;1.77;0.70;;;;;;;28.56;36.63;99967.53;31217969;27;97306;-73
2023/09/23 11:12:46;;;;;;;2.45;1.10;;;;;;;32.09;31.73;99974.34;31224448;28;97855;-74
2023/09/23 11:27:47;;;;;;;2.50;1.00;;;;;;;27.26;34.42;99978.28;31223217;28;96694;-69
2023/09/23 11:42:47;;;;;;;4.03;1.20;;;;;;;24.70;37.72;99995.16;31220899;28;97163;-72
2023/09/23 11:57:49;;;;;;;3.35;1.30;;;;;;;23.23;40.42;99984.81;31219770;28;111256;-67
2023/09/23 12:12:49;;;;;;;2.53;1.33;;;;;;;23.21;41.04;99995.16;31220721;27;96750;-73
2023/09/23 12:27:49;;;;;;;2.22;1.48;;;;;;;22.78;42.04;100005.84;31217601;28;110189;-73
2023/09/23 12:42:51;;;;;;;;;;;;;;;21.74;43.63;100012.94;31217827;28;97496;-69
2023/09/23 12:57:55;;;;;;;2.60;1.30;;;;;;;21.28;44.97;100018.41;31215675;28;96948;-72
2023/09/23 13:12:55;;;;;;;1.80;1.20;;;;;;;22.28;43.73;100048.41;31211057;27;96799;-69
2023/09/23 13:27:55;;;;;;;2.90;1.50;;;;;;;21.73;44.11;100055.47;31212456;28;96978;-66
2023/09/23 13:42:56;;;;;;;2.00;1.10;;;;;;;20.69;45.36;100076.38;31209669;28;110721;-70
2023/09/23 13:57:56;;;;;;;2.50;1.43;;;;;;;19.51;47.39;100077.22;31210301;28;97549;-70
2023/09/23 14:12:56;;;;;;;3.45;1.70;;;;;;;18.98;48.89;100069.91;31206968;28;110140;-73
2023/09/23 14:27:57;;;;;;;2.63;1.33;;;;;;;18.36;50.04;100128.31;31213408;28;97497;-66
2023/09/23 14:42:57;;;;;;;6.82;1.38;;;;;;;18.08;50.89;100126.06;31226842;28;108427;-69
2023/09/23 14:57:57;;;;;;;1.80;1.27;;;;;;;17.82;51.21;100157.56;31226587;28;103326;-69
2023/09/23 15:12:59;;;;;;;2.25;1.02;;;;;;;17.63;51.55;100151.25;31223542;28;97469;-72
2023/09/23 15:27:59;;;;;;;3.90;1.20;;;;;;;17.50;51.76;100194.47;31222776;28;97198;-74
2023/09/23 15:43:00;;;;;;;1.80;0.90;;;;;;;17.53;51.81;100218.25;31201989;27;98478;-73
2023/09/23 15:58:01;;;;;;;0.93;0.70;;;;;;;17.39;52.09;100242.56;31220435;28;97529;-76
2023/09/23 16:13:01;;;;;;;1.50;0.70;;;;;;;17.07;51.95;100272.09;31219701;28;96768;-66
2023/09/23 16:28:02;;;;;;;2.42;0.60;;;;;;;16.88;51.91;100284.53;31219242;28;96716;-64
2023/09/23 16:43:03;;;;;;;2.38;0.75;;;;;;;16.53;52.25;100300.88;31215960;28;97127;-73
2023/09/23 16:58:03;;;;;;;4.32;1.33;;;;;;;16.21;53.03;100315.94;31213532;27;97810;-72
2023/09/23 17:13:03;;;;;;;2.75;0.93;;;;;;;15.92;53.83;100333.25;31212505;28;97515;-73
2023/09/23 17:28:05;;;;;;;1.58;0.68;;;;;;;15.67;54.15;100363.28;31210947;28;104133;-74
2023/09/23 17:43:05;;;;;;;4.00;1.53;;;;;;;15.51;54.71;100375.19;31210033;28;97728;-68
2023/09/23 17:58:08;;;;;;;1.70;0.90;;;;;;;15.17;55.51;100395.59;31209344;27;97294;-76
2023/09/23 18:13:08;;;;;;;3.40;1.10;;;;;;;14.70;56.32;100422.88;31206934;28;97418;-72
2023/09/23 18:28:09;;;;;;;5.38;2.90;;;;;;;14.20;57.80;100433.47;31205503;28;97221;-71
2023/09/23 18:43:10;;;;;;;4.63;2.42;;;;;;;13.82;59.16;100468.41;31203031;28;103112;-73
2023/09/23 18:58:11;;;;;;;4.10;1.90;;;;;;;13.64;60.22;100494.69;31204783;28;97551;-69
2023/09/23 19:13:11;;;;;;;4.13;1.70;;;;;;;13.36;61.04;100500.66;31208011;27;97153;-72
2023/09/23 19:28:11;;;;;;;5.57;3.35;;;;;;;13.16;62.01;100505.63;31224385;28;102203;-72
2023/09/23 19:43:12;;;;;;;5.72;3.78;;;;;;;12.93;62.64;100505.63;31220740;28;111300;-76
2023/09/23 19:58:16;;;;;;;4.85;2.58;;;;;;;12.85;63.57;100519.91;31220225;28;104212;-70
2023/09/23 20:13:16;;;;;;;8.20;2.30;;;;;;;12.75;63.91;100514.78;31218673;28;97139;-69
2023/09/23 20:28:17;;;;;;;6.57;2.60;;;;;;;12.64;64.30;100518.72;31216479;28;96724;-74
2023/09/23 20:43:17;;;;;;;8.82;3.90;;;;;;;12.41;64.98;100529.34;31217679;28;97011;-73
2023/09/23 20:58:18;;;;;;;4.53;2.60;;;;;;;12.22;65.66;100533.25;31216938;28;97373;-69
2023/09/23 21:13:18;;;;;;;10.63;3.92;;;;;;;12.07;66.40;100541.16;31213829;28;97423;-66
2023/09/23 21:28:19;;;;;;;7.03;3.40;;;;;;;12.00;67.19;100548.16;31213721;28;97167;-71
2023/09/23 21:43:20;;;;;;;6.05;3.00;;;;;;;11.98;67.17;100564.34;31211793;27;97445;-70
2023/09/23 21:58:21;;;;;;;7.93;3.13;;;;;;;11.98;67.93;100579.56;31212020;28;97225;-70
2023/09/23 22:13:21;;;;;;;6.47;3.13;;;;;;;11.97;67.65;100593.91;31210255;28;97379;-76
2023/09/23 22:28:22;;;;;;;7.10;3.50;;;;;;;11.90;68.33;100614.25;31208999;28;96690;-72
2023/09/23 22:43:22;;;;;;;7.88;3.75;;;;;;;11.78;68.24;100619.94;31208160;28;97671;-75
2023/09/23 22:58:23;;;;;;;8.48;5.05;;;;;;;11.62;68.35;100635.94;31226739;27;100393;-72
2023/09/23 23:13:24;;;;;;;4.70;3.00;;;;;;;11.46;68.88;100640.25;31227898;28;97039;-70
2023/09/23 23:28:27;;;;;;;6.60;4.00;;;;;;;11.29;69.17;100652.75;31226791;28;96765;-73
2023/09/23 23:43:27;;;;;;;9.23;3.73;;;;;;;11.13;70.09;100674.84;31224930;28;98778;-78
2023/09/23 23:58:27;;;;;;;5.80;3.30;;;;;;;10.96;69.92;100673.97;31223918;27;112015;-74
